sensor_id;sensor_type;location;lat;lon;timestamp;pressure;altitude;pressure_sealevel;temperature;humidity
32109;BME280;18624;50.042;8.436;2023-02-22T00:00:29;100359.00;;;5.04;100.00
32109;BME280;18624;50.042;8.436;2023-02-22T00:03:23;100448.56;;;5.61;100.00
32109;BME280;18624;50.042;8.436;2023-02-22T00:05:57;100454.00;;;5.61;100.00
32109;BME280;18624;50.042;8.436;2023-02-22T00:08:26;100445.09;;;5.57;100.00
32109;BME280;18624;50.042;8.436;2023-02-22T00:11:01;100443.94;;;5.54;100.00
32109;BME280;18624;50.042;8.436;2023-02-22T00:13:28;100450.53;;;5.53;100.00
32109;BME280;18624;50.042;8.436;2023-02-22T00:15:56;100444.31;;;5.53;100.00
32109;BME280;18624;50.042;8.436;2023-02-22T00:18:23;100440.06;;;5.55;100.00
32109;BME280;18624;50.042;8.436;2023-02-22T00:20:54;100442.34;;;5.68;100.00
32109;BME280;18624;50.042;8.436;2023-02-22T00:23:21;100438.81;;;5.81;100.00
32109;BME280;18624;50.042;8.436;2023-02-22T00:25:49;100427.50;;;5.90;100.00
32109;BME280;18624;50.042;8.436;2023-02-22T00:28:17;100427.09;;;5.99;100.00
32109;BME280;18624;50.042;8.436;2023-02-22T00:30:44;100426.28;;;6.05;100.00
32109;BME280;18624;50.042;8.436;2023-02-22T00:33:12;100432.88;;;6.12;100.00
32109;BME280;18624;50.042;8.436;2023-02-22T00:35:39;100427.41;;;6.15;100.00
32109;BME280;18624;50.042;8.436;2023-02-22T00:38:05;100430.88;;;6.19;100.00
32109;BME280;18624;50.042;8.436;2023-02-22T00:40:33;100424.28;;;6.20;100.00
32109;BME280;18624;50.042;8.436;2023-02-22T00:43:02;100354.09;;;5.79;100.00
32109;BME280;18624;50.042;8.436;2023-02-22T00:45:30;100422.31;;;6.24;100.00
32109;BME280;18624;50.042;8.436;2023-02-22T00:47:57;100425.41;;;6.26;100.00
32109;BME280;18624;50.042;8.436;2023-02-22T00:50:26;100419.94;;;6.30;100.00
32109;BME280;18624;50.042;8.436;2023-02-22T00:52:55;100416.44;;;6.29;100.00
32109;BME280;18624;50.042;8.436;2023-02-22T00:55:28;100413.69;;;6.33;100.00
32109;BME280;18624;50.042;8.436;2023-02-22T00:57:55;100414.50;;;6.30;100.00
32109;BME280;18624;50.042;8.436;2023-02-22T01:00:30;100411.44;;;6.21;100.00
32109;BME280;18624;50.042;8.436;2023-02-22T01:02:57;100403.34;;;6.10;100.00
32109;BME280;18624;50.042;8.436;2023-02-22T01:05:26;100404.94;;;6.04;100.00
32109;BME280;18624;50.042;8.436;2023-02-22T01:07:54;100406.13;;;5.99;100.00
32109;BME280;18624;50.042;8.436;2023-02-22T01:10:23;100404.19;;;5.96;100.00
32109;BME280;18624;50.042;8.436;2023-02-22T01:12:50;100402.25;;;5.93;100.00
32109;BME280;18624;50.042;8.436;2023-02-22T01:15:19;100318.53;;;5.38;100.00
32109;BME280;18624;50.042;8.436;2023-02-22T01:17:48;100395.25;;;5.89;100.00
32109;BME280;18624;50.042;8.436;2023-02-22T01:20:16;100394.09;;;5.86;100.00
32109;BME280;18624;50.042;8.436;2023-02-22T01:22:47;100393.28;;;5.89;100.00
32109;BME280;18624;50.042;8.436;2023-02-22T01:25:22;100385.91;;;5.93;100.00
32109;BME280;18624;50.042;8.436;2023-02-22T01:27:50;100386.69;;;5.94;100.00
32109;BME280;18624;50.042;8.436;2023-02-22T01:30:21;100387.47;;;5.98;100.00
32109;BME280;18624;50.042;8.436;2023-02-22T01:32:49;100390.94;;;5.98;100.00
32109;BME280;18624;50.042;8.436;2023-02-22T01:35:22;100382.78;;;6.02;100.00
32109;BME280;18624;50.042;8.436;2023-02-22T01:37:49;100388.59;;;6.04;100.00
32109;BME280;18624;50.042;8.436;2023-02-22T01:40:23;100299.06;;;5.54;100.00
32109;BME280;18624;50.042;8.436;2023-02-22T01:42:52;100378.06;;;6.09;100.00
32109;BME280;18624;50.042;8.436;2023-02-22T01:48:17;100363.25;;;6.18;100.00
32109;BME280;18624;50.042;8.436;2023-02-22T01:50:53;100350.44;;;6.11;100.00
32109;BME280;18624;50.042;8.436;2023-02-22T01:53:24;100348.56;;;6.08;100.00
32109;BME280;18624;50.042;8.436;2023-02-22T01:55:52;100365.16;;;6.21;100.00
32109;BME280;18624;50.042;8.436;2023-02-22T01:58:21;100357.00;;;6.21;100.00
32109;BME280;18624;50.042;8.436;2023-02-22T02:00:49;100353.91;;;6.19;100.00
32109;BME280;18624;50.042;8.436;2023-02-22T02:03:28;100353.91;;;6.19;100.00
32109;BME280;18624;50.042;8.436;2023-02-22T02:06:00;100361.66;;;6.20;100.00
32109;BME280;18624;50.042;8.436;2023-02-22T02:11:06;100352.72;;;6.20;100.00
32109;BME280;18624;50.042;8.436;2023-02-22T02:13:35;100341.13;;;6.12;100.00
32109;BME280;18624;50.042;8.436;2023-02-22T02:16:01;100349.25;;;6.19;100.00
32109;BME280;18624;50.042;8.436;2023-02-22T02:18:28;100300.03;;;5.85;100.00
32109;BME280;18624;50.042;8.436;2023-02-22T02:24:11;100355.03;;;6.21;100.00
32109;BME280;18624;50.042;8.436;2023-02-22T02:27:04;100345.34;;;6.20;100.00
32109;BME280;18624;50.042;8.436;2023-02-22T02:32:55;100345.31;;;6.24;100.00
32109;BME280;18624;50.042;8.436;2023-02-22T02:40:57;100341.06;;;6.23;100.00
32109;BME280;18624;50.042;8.436;2023-02-22T02:46:35;100339.50;;;6.22;100.00
32109;BME280;18624;50.042;8.436;2023-02-22T02:49:07;100329.00;;;6.20;100.00
32109;BME280;18624;50.042;8.436;2023-02-22T02:51:40;100330.53;;;6.25;100.00
32109;BME280;18624;50.042;8.436;2023-02-22T02:54:09;100332.88;;;6.26;100.00
32109;BME280;18624;50.042;8.436;2023-02-22T02:56:36;100334.03;;;6.25;100.00
32109;BME280;18624;50.042;8.436;2023-02-22T02:59:23;100332.06;;;6.26;100.00
32109;BME280;18624;50.042;8.436;2023-02-22T03:04:54;100320.41;;;6.25;100.00
32109;BME280;18624;50.042;8.436;2023-02-22T03:07:44;100321.63;;;6.21;100.00
32109;BME280;18624;50.042;8.436;2023-02-22T03:19:08;100308.09;;;6.06;100.00
32109;BME280;18624;50.042;8.436;2023-02-22T03:21:54;100317.03;;;6.07;100.00
32109;BME280;18624;50.042;8.436;2023-02-22T03:24:42;100317.81;;;6.07;100.00
32109;BME280;18624;50.042;8.436;2023-02-22T03:27:15;100309.66;;;6.07;100.00
32109;BME280;18624;50.042;8.436;2023-02-22T03:29:50;100308.88;;;6.07;100.00
32109;BME280;18624;50.042;8.436;2023-02-22T03:32:22;100300.75;;;6.03;100.00
32109;BME280;18624;50.042;8.436;2023-02-22T03:34:58;100312.78;;;6.06;100.00
32109;BME280;18624;50.042;8.436;2023-02-22T03:37:31;100282.13;;;5.98;100.00
32109;BME280;18624;50.042;8.436;2023-02-22T03:40:00;100309.28;;;6.05;100.00
32109;BME280;18624;50.042;8.436;2023-02-22T03:42:33;100310.47;;;6.04;100.00
32109;BME280;18624;50.042;8.436;2023-02-22T03:45:05;100294.53;;;6.03;100.00
32109;BME280;18624;50.042;8.436;2023-02-22T03:47:38;100300.41;;;5.98;100.00
32109;BME280;18624;50.042;8.436;2023-02-22T03:50:10;100288.81;;;5.79;100.00
32109;BME280;18624;50.042;8.436;2023-02-22T03:52:41;100301.63;;;5.86;100.00
32109;BME280;18624;50.042;8.436;2023-02-22T03:55:14;100296.97;;;5.79;100.00
32109;BME280;18624;50.042;8.436;2023-02-22T03:57:47;100291.19;;;5.74;100.00
32109;BME280;18624;50.042;8.436;2023-02-22T04:00:20;100289.25;;;5.71;100.00
32109;BME280;18624;50.042;8.436;2023-02-22T04:02:48;100287.72;;;5.66;100.00
32109;BME280;18624;50.042;8.436;2023-02-22T04:05:18;100283.50;;;5.58;100.00
32109;BME280;18624;50.042;8.436;2023-02-22T04:07:46;100293.59;;;5.61;100.00
32109;BME280;18624;50.042;8.436;2023-02-22T04:10:14;100285.84;;;5.59;100.00
32109;BME280;18624;50.042;8.436;2023-02-22T04:12:41;100161.25;;;4.67;100.00
32109;BME280;18624;50.042;8.436;2023-02-22T04:15:12;100292.88;;;5.50;100.00
32109;BME280;18624;50.042;8.436;2023-02-22T04:17:38;100291.72;;;5.47;100.00
32109;BME280;18624;50.042;8.436;2023-02-22T04:20:07;100284.41;;;5.33;100.00
32109;BME280;18624;50.042;8.436;2023-02-22T04:22:43;100296.03;;;5.41;100.00
32109;BME280;18624;50.042;8.436;2023-02-22T04:25:11;100275.13;;;5.27;100.00
32109;BME280;18624;50.042;8.436;2023-02-22T04:27:38;100281.31;;;5.28;100.00
32109;BME280;18624;50.042;8.436;2023-02-22T04:30:05;100271.63;;;5.20;100.00
32109;BME280;18624;50.042;8.436;2023-02-22T04:32:35;100211.66;;;4.68;100.00
32109;BME280;18624;50.042;8.436;2023-02-22T04:35:02;100290.66;;;5.16;100.00
32109;BME280;18624;50.042;8.436;2023-02-22T04:37:29;100284.09;;;5.10;100.00
32109;BME280;18624;50.042;8.436;2023-02-22T04:39:56;100277.13;;;4.98;100.00
32109;BME280;18624;50.042;8.436;2023-02-22T04:42:22;100274.47;;;4.84;100.00
32109;BME280;18624;50.042;8.436;2023-02-22T04:44:49;100261.69;;;4.70;100.00
32109;BME280;18624;50.042;8.436;2023-02-22T04:47:15;100274.50;;;4.66;100.00
32109;BME280;18624;50.042;8.436;2023-02-22T04:49:42;100278.38;;;4.62;100.00
32109;BME280;18624;50.042;8.436;2023-02-22T04:52:08;100279.19;;;4.55;100.00
32109;BME280;18624;50.042;8.436;2023-02-22T04:54:36;100275.28;;;4.56;100.00
32109;BME280;18624;50.042;8.436;2023-02-22T04:57:03;100274.88;;;4.57;100.00
32109;BME280;18624;50.042;8.436;2023-02-22T04:59:32;100268.69;;;4.53;100.00
32109;BME280;18624;50.042;8.436;2023-02-22T05:01:59;100279.16;;;4.58;100.00
32109;BME280;18624;50.042;8.436;2023-02-22T05:04:26;100272.19;;;4.57;100.00
32109;BME280;18624;50.042;8.436;2023-02-22T05:06:52;100268.69;;;4.57;100.00
32109;BME280;18624;50.042;8.436;2023-02-22T05:09:20;100265.97;;;4.53;100.00
32109;BME280;18624;50.042;8.436;2023-02-22T05:11:47;100263.66;;;4.52;100.00
32109;BME280;18624;50.042;8.436;2023-02-22T05:14:13;100269.50;;;4.50;100.00
32109;BME280;18624;50.042;8.436;2023-02-22T05:16:40;100264.44;;;4.49;100.00
32109;BME280;18624;50.042;8.436;2023-02-22T05:19:06;100268.69;;;4.50;100.00
32109;BME280;18624;50.042;8.436;2023-02-22T05:21:33;100247.00;;;4.39;100.00
32109;BME280;18624;50.042;8.436;2023-02-22T05:23:59;100267.13;;;4.45;100.00
32109;BME280;18624;50.042;8.436;2023-02-22T05:26:25;100258.25;;;4.34;100.00
32109;BME280;18624;50.042;8.436;2023-02-22T05:28:52;100259.78;;;4.39;100.00
32109;BME280;18624;50.042;8.436;2023-02-22T05:31:19;100271.03;;;4.37;100.00
32109;BME280;18624;50.042;8.436;2023-02-22T05:33:46;100260.97;;;4.34;100.00
32109;BME280;18624;50.042;8.436;2023-02-22T05:36:13;100257.84;;;4.32;100.00
32109;BME280;18624;50.042;8.436;2023-02-22T05:38:40;100252.03;;;4.30;100.00
32109;BME280;18624;50.042;8.436;2023-02-22T05:41:11;100258.63;;;4.29;100.00
32109;BME280;18624;50.042;8.436;2023-02-22T05:43:39;100260.19;;;4.30;100.00
32109;BME280;18624;50.042;8.436;2023-02-22T05:46:06;100254.75;;;4.30;100.00
32109;BME280;18624;50.042;8.436;2023-02-22T05:48:32;100257.47;;;4.34;100.00
32109;BME280;18624;50.042;8.436;2023-02-22T05:50:59;100247.38;;;4.27;100.00
32109;BME280;18624;50.042;8.436;2023-02-22T05:53:25;100247.78;;;4.32;100.00
32109;BME280;18624;50.042;8.436;2023-02-22T05:55:52;100256.31;;;4.38;100.00
32109;BME280;18624;50.042;8.436;2023-02-22T05:58:19;100252.06;;;4.37;100.00
32109;BME280;18624;50.042;8.436;2023-02-22T06:00:45;100247.75;;;4.36;100.00
32109;BME280;18624;50.042;8.436;2023-02-22T06:03:12;100104.47;;;3.38;100.00
32109;BME280;18624;50.042;8.436;2023-02-22T06:05:40;100254.34;;;4.31;100.00
32109;BME280;18624;50.042;8.436;2023-02-22T06:08:06;100257.09;;;4.28;100.00
32109;BME280;18624;50.042;8.436;2023-02-22T06:10:33;100252.03;;;4.26;100.00
32109;BME280;18624;50.042;8.436;2023-02-22T06:13:00;100254.75;;;4.23;100.00
32109;BME280;18624;50.042;8.436;2023-02-22T06:15:28;100254.38;;;4.21;100.00
32109;BME280;18624;50.042;8.436;2023-02-22T06:17:55;100251.28;;;4.19;100.00
32109;BME280;18624;50.042;8.436;2023-02-22T06:20:25;100254.00;;;4.19;100.00
32109;BME280;18624;50.042;8.436;2023-02-22T06:22:55;100250.88;;;4.17;100.00
32109;BME280;18624;50.042;8.436;2023-02-22T06:25:24;100250.88;;;4.17;100.00
32109;BME280;18624;50.042;8.436;2023-02-22T06:27:51;100259.78;;;4.17;100.00
32109;BME280;18624;50.042;8.436;2023-02-22T06:30:20;100254.78;;;4.19;100.00
32109;BME280;18624;50.042;8.436;2023-02-22T06:32:47;100262.53;;;4.24;100.00
32109;BME280;18624;50.042;8.436;2023-02-22T06:35:14;100250.09;;;4.16;100.00
32109;BME280;18624;50.042;8.436;2023-02-22T06:37:41;100265.22;;;4.21;100.00
32109;BME280;18624;50.042;8.436;2023-02-22T06:40:08;100265.22;;;4.24;100.00
32109;BME280;18624;50.042;8.436;2023-02-22T06:42:37;100266.00;;;4.25;100.00
32109;BME280;18624;50.042;8.436;2023-02-22T06:45:04;100261.34;;;4.22;100.00
32109;BME280;18624;50.042;8.436;2023-02-22T06:47:30;100263.28;;;4.18;100.00
32109;BME280;18624;50.042;8.436;2023-02-22T06:49:58;100264.47;;;4.24;100.00
32109;BME280;18624;50.042;8.436;2023-02-22T06:52:26;100266.78;;;4.25;100.00
32109;BME280;18624;50.042;8.436;2023-02-22T06:54:52;100271.44;;;4.28;100.00
32109;BME280;18624;50.042;8.436;2023-02-22T06:57:18;100270.28;;;4.33;100.00
32109;BME280;18624;50.042;8.436;2023-02-22T06:59:45;100279.56;;;4.36;100.00
32109;BME280;18624;50.042;8.436;2023-02-22T07:02:12;100279.56;;;4.39;100.00
32109;BME280;18624;50.042;8.436;2023-02-22T07:04:39;100255.94;;;4.15;100.00
32109;BME280;18624;50.042;8.436;2023-02-22T07:07:09;100290.03;;;4.44;100.00
32109;BME280;18624;50.042;8.436;2023-02-22T07:09:35;100298.56;;;4.46;100.00
32109;BME280;18624;50.042;8.436;2023-02-22T07:12:02;100302.44;;;4.49;100.00
32109;BME280;18624;50.042;8.436;2023-02-22T07:14:29;100304.78;;;4.50;100.00
32109;BME280;18624;50.042;8.436;2023-02-22T07:16:55;100314.06;;;4.49;100.00
32109;BME280;18624;50.042;8.436;2023-02-22T07:19:21;100317.94;;;4.48;100.00
32109;BME280;18624;50.042;8.436;2023-02-22T07:21:49;100315.22;;;4.52;100.00
32109;BME280;18624;50.042;8.436;2023-02-22T07:24:16;100311.75;;;4.55;100.00
32109;BME280;18624;50.042;8.436;2023-02-22T07:26:42;100313.66;;;4.54;100.00
32109;BME280;18624;50.042;8.436;2023-02-22T07:29:09;100316.38;;;4.58;100.00
32109;BME280;18624;50.042;8.436;2023-02-22T07:31:38;100317.16;;;4.66;100.00
32109;BME280;18624;50.042;8.436;2023-02-22T07:34:05;100315.22;;;4.66;100.00
32109;BME280;18624;50.042;8.436;2023-02-22T07:36:31;100313.66;;;4.72;100.00
32109;BME280;18624;50.042;8.436;2023-02-22T07:38:58;100327.22;;;4.76;100.00
32109;BME280;18624;50.042;8.436;2023-02-22T07:41:24;100225.69;;;4.16;100.00
32109;BME280;18624;50.042;8.436;2023-02-22T07:43:51;100326.06;;;4.88;100.00
32109;BME280;18624;50.042;8.436;2023-02-22T07:46:17;100312.09;;;4.82;100.00
32109;BME280;18624;50.042;8.436;2023-02-22T07:48:44;100333.03;;;4.96;100.00
32109;BME280;18624;50.042;8.436;2023-02-22T07:51:14;100327.97;;;5.01;100.00
32109;BME280;18624;50.042;8.436;2023-02-22T07:53:41;100329.50;;;5.06;100.00
32109;BME280;18624;50.042;8.436;2023-02-22T07:56:07;100324.84;;;5.10;100.00
32109;BME280;18624;50.042;8.436;2023-02-22T07:58:33;100324.44;;;5.12;100.00
32109;BME280;18624;50.042;8.436;2023-02-22T08:01:00;100328.72;;;5.13;100.00
32109;BME280;18624;50.042;8.436;2023-02-22T08:03:33;100320.16;;;5.18;100.00
32109;BME280;18624;50.042;8.436;2023-02-22T08:06:03;100318.22;;;5.18;100.00
32109;BME280;18624;50.042;8.436;2023-02-22T08:08:31;100319.38;;;5.21;100.00
32109;BME280;18624;50.042;8.436;2023-02-22T08:10:58;100305.41;;;5.19;100.00
32109;BME280;18624;50.042;8.436;2023-02-22T08:13:24;100314.72;;;5.25;100.00
32109;BME280;18624;50.042;8.436;2023-02-22T08:15:52;100309.25;;;5.28;100.00
32109;BME280;18624;50.042;8.436;2023-02-22T08:18:21;100306.16;;;5.30;100.00
32109;BME280;18624;50.042;8.436;2023-02-22T08:20:49;100308.84;;;5.33;100.00
32109;BME280;18624;50.042;8.436;2023-02-22T08:23:18;100300.34;;;5.24;100.00
32109;BME280;18624;50.042;8.436;2023-02-22T08:25:45;100300.69;;;5.41;100.00
32109;BME280;18624;50.042;8.436;2023-02-22T08:28:14;100303.38;;;5.44;100.00
32109;BME280;18624;50.042;8.436;2023-02-22T08:30:41;100211.22;;;4.87;100.00
32109;BME280;18624;50.042;8.436;2023-02-22T08:33:10;100312.63;;;5.57;100.00
32109;BME280;18624;50.042;8.436;2023-02-22T08:35:39;100311.84;;;5.57;100.00
32109;BME280;18624;50.042;8.436;2023-02-22T08:38:13;100311.09;;;5.56;100.00
32109;BME280;18624;50.042;8.436;2023-02-22T08:40:40;100308.78;;;5.55;100.00
32109;BME280;18624;50.042;8.436;2023-02-22T08:43:06;100316.53;;;5.53;100.00
32109;BME280;18624;50.042;8.436;2023-02-22T08:45:33;100324.69;;;5.53;100.00
32109;BME280;18624;50.042;8.436;2023-02-22T08:47:59;100316.56;;;5.49;100.00
32109;BME280;18624;50.042;8.436;2023-02-22T08:50:29;100224.75;;;4.91;100.00
32109;BME280;18624;50.042;8.436;2023-02-22T08:52:58;100322.78;;;5.50;100.00
32109;BME280;18624;50.042;8.436;2023-02-22T08:55:26;100314.63;;;5.46;100.00
32109;BME280;18624;50.042;8.436;2023-02-22T08:57:53;100326.28;;;5.47;100.00
32109;BME280;18624;50.042;8.436;2023-02-22T09:00:21;100313.47;;;5.47;100.00
32109;BME280;18624;50.042;8.436;2023-02-22T09:02:53;100319.28;;;5.49;100.00
32109;BME280;18624;50.042;8.436;2023-02-22T09:05:20;100310.72;;;5.54;100.00
32109;BME280;18624;50.042;8.436;2023-02-22T09:07:47;100217.78;;;4.90;100.00
32109;BME280;18624;50.042;8.436;2023-02-22T09:10:15;100313.06;;;5.49;100.00
32109;BME280;18624;50.042;8.436;2023-02-22T09:12:42;100311.13;;;5.49;100.00
32109;BME280;18624;50.042;8.436;2023-02-22T09:15:10;100309.19;;;5.50;100.00
32109;BME280;18624;50.042;8.436;2023-02-22T09:17:37;100300.63;;;5.48;100.00
32109;BME280;18624;50.042;8.436;2023-02-22T09:20:05;100301.00;;;5.53;100.00
32109;BME280;18624;50.042;8.436;2023-02-22T09:22:32;100298.28;;;5.53;100.00
32109;BME280;18624;50.042;8.436;2023-02-22T09:24:58;100304.88;;;5.52;100.00
32109;BME280;18624;50.042;8.436;2023-02-22T09:27:33;100290.50;;;5.55;100.00
32109;BME280;18624;50.042;8.436;2023-02-22T09:29:59;100293.59;;;5.61;100.00
32109;BME280;18624;50.042;8.436;2023-02-22T09:32:26;100300.94;;;5.68;100.00
32109;BME280;18624;50.042;8.436;2023-02-22T09:34:53;100213.81;;;5.16;100.00
32109;BME280;18624;50.042;8.436;2023-02-22T09:37:21;100274.97;;;5.59;100.00
32109;BME280;18624;50.042;8.436;2023-02-22T09:39:47;100292.34;;;5.76;100.00
32109;BME280;18624;50.042;8.436;2023-02-22T09:42:27;100288.44;;;5.81;100.00
32109;BME280;18624;50.042;8.436;2023-02-22T09:45:07;100290.00;;;5.78;100.00
32109;BME280;18624;50.042;8.436;2023-02-22T09:47:40;100291.16;;;5.81;100.00
32109;BME280;18624;50.042;8.436;2023-02-22T09:50:14;100287.25;;;5.82;100.00
32109;BME280;18624;50.042;8.436;2023-02-22T09:52:53;100289.16;;;5.85;100.00
32109;BME280;18624;50.042;8.436;2023-02-22T09:58:02;100164.25;;;4.94;100.00
32109;BME280;18624;50.042;8.436;2023-02-22T10:00:34;100275.66;;;5.74;100.00
32109;BME280;18624;50.042;8.436;2023-02-22T10:08:33;100269.41;;;5.81;100.00
32109;BME280;18624;50.042;8.436;2023-02-22T10:11:09;100289.91;;;5.89;100.00
32109;BME280;18624;50.042;8.436;2023-02-22T10:13:56;100258.97;;;5.72;100.00
32109;BME280;18624;50.042;8.436;2023-02-22T10:16:39;100290.31;;;5.95;100.00
32109;BME280;18624;50.042;8.436;2023-02-22T10:19:30;100295.34;;;5.96;100.00
32109;BME280;18624;50.042;8.436;2023-02-22T10:27:39;100291.00;;;6.09;100.00
32109;BME280;18624;50.042;8.436;2023-02-22T10:30:27;100290.59;;;6.11;100.00
32109;BME280;18624;50.042;8.436;2023-02-22T10:33:11;100279.31;;;6.13;100.00
32109;BME280;18624;50.042;8.436;2023-02-22T10:35:40;100287.41;;;6.20;100.00
32109;BME280;18624;50.042;8.436;2023-02-22T10:38:22;100283.88;;;6.26;100.00
32109;BME280;18624;50.042;8.436;2023-02-22T10:40:54;100267.16;;;6.24;100.00
32109;BME280;18624;50.042;8.436;2023-02-22T10:43:22;100281.84;;;6.34;100.00
32109;BME280;18624;50.042;8.436;2023-02-22T10:45:54;100278.75;;;6.36;100.00
32109;BME280;18624;50.042;8.436;2023-02-22T10:48:23;100278.31;;;6.41;100.00
32109;BME280;18624;50.042;8.436;2023-02-22T10:50:53;100151.00;;;5.62;100.00
32109;BME280;18624;50.042;8.436;2023-02-22T10:53:22;100275.50;;;6.51;100.00
32109;BME280;18624;50.042;8.436;2023-02-22T10:56:12;100275.81;;;6.57;100.00
32109;BME280;18624;50.042;8.436;2023-02-22T10:58:49;100269.97;;;6.58;100.00
32109;BME280;18624;50.042;8.436;2023-02-22T11:01:25;100272.28;;;6.64;100.00
32109;BME280;18624;50.042;8.436;2023-02-22T11:04:08;100268.75;;;6.67;100.00
32109;BME280;18624;50.042;8.436;2023-02-22T11:06:36;100181.66;;;6.22;100.00
32109;BME280;18624;50.042;8.436;2023-02-22T11:09:09;100227.66;;;6.50;100.00
32109;BME280;18624;50.042;8.436;2023-02-22T11:11:36;100253.06;;;6.78;100.00
32109;BME280;18624;50.042;8.436;2023-02-22T11:14:03;100267.84;;;6.77;100.00
32109;BME280;18624;50.042;8.436;2023-02-22T11:16:34;100245.66;;;6.78;100.00
32109;BME280;18624;50.042;8.436;2023-02-22T11:24:26;100240.50;;;6.88;100.00
32109;BME280;18624;50.042;8.436;2023-02-22T11:27:22;100227.59;;;6.92;100.00
32109;BME280;18624;50.042;8.436;2023-02-22T11:29:50;100233.78;;;6.96;100.00
32109;BME280;18624;50.042;8.436;2023-02-22T11:32:19;100232.53;;;7.04;100.00
32109;BME280;18624;50.042;8.436;2023-02-22T11:34:48;100230.13;;;7.09;100.00
32109;BME280;18624;50.042;8.436;2023-02-22T11:37:34;100219.53;;;7.15;100.00
32109;BME280;18624;50.042;8.436;2023-02-22T11:40:12;100224.53;;;7.20;100.00
32109;BME280;18624;50.042;8.436;2023-02-22T11:42:42;100219.41;;;7.26;100.00
32109;BME280;18624;50.042;8.436;2023-02-22T11:45:15;100220.91;;;7.30;100.00
32109;BME280;18624;50.042;8.436;2023-02-22T11:47:50;100215.00;;;7.35;100.00
32109;BME280;18624;50.042;8.436;2023-02-22T11:53:37;100211.34;;;7.46;100.00
32109;BME280;18624;50.042;8.436;2023-02-22T11:56:13;100205.84;;;7.49;100.00
32109;BME280;18624;50.042;8.436;2023-02-22T12:04:38;100192.41;;;7.62;100.00
32109;BME280;18624;50.042;8.436;2023-02-22T12:07:39;100195.78;;;7.70;100.00
32109;BME280;18624;50.042;8.436;2023-02-22T12:16:10;100190.47;;;7.86;100.00
32109;BME280;18624;50.042;8.436;2023-02-22T12:19:18;100176.03;;;7.89;100.00
32109;BME280;18624;50.042;8.436;2023-02-22T12:22:09;100179.09;;;7.91;100.00
32109;BME280;18624;50.042;8.436;2023-02-22T12:25:01;100179.47;;;7.93;100.00
32109;BME280;18624;50.042;8.436;2023-02-22T12:27:39;100179.03;;;7.95;100.00
32109;BME280;18624;50.042;8.436;2023-02-22T12:32:44;100180.53;;;7.99;100.00
32109;BME280;18624;50.042;8.436;2023-02-22T12:37:51;100151.03;;;7.91;100.00
32109;BME280;18624;50.042;8.436;2023-02-22T12:50:55;100166.63;;;8.13;100.00
32109;BME280;18624;50.042;8.436;2023-02-22T12:53:33;100178.22;;;8.21;100.00
32109;BME280;18624;50.042;8.436;2023-02-22T12:58:48;100096.66;;;7.80;100.00
32109;BME280;18624;50.042;8.436;2023-02-22T13:01:24;100162.00;;;8.34;100.00
32109;BME280;18624;50.042;8.436;2023-02-22T13:03:53;100166.22;;;8.39;100.00
32109;BME280;18624;50.042;8.436;2023-02-22T13:06:38;100165.75;;;8.44;100.00
32109;BME280;18624;50.042;8.436;2023-02-22T13:11:54;100156.72;;;8.47;100.00
32109;BME280;18624;50.042;8.436;2023-02-22T13:20:16;100150.13;;;8.64;100.00
32109;BME280;18624;50.042;8.436;2023-02-22T13:25:54;100036.16;;;8.05;100.00
32109;BME280;18624;50.042;8.436;2023-02-22T13:28:42;100134.72;;;8.74;100.00
32109;BME280;18624;50.042;8.436;2023-02-22T13:34:08;100129.09;;;8.81;100.00
32109;BME280;18624;50.042;8.436;2023-02-22T13:37:17;100127.50;;;8.83;100.00
32109;BME280;18624;50.042;8.436;2023-02-22T13:54:20;100118.06;;;9.04;100.00
32109;BME280;18624;50.042;8.436;2023-02-22T13:56:50;100117.66;;;9.06;100.00
32109;BME280;18624;50.042;8.436;2023-02-22T13:59:32;100117.53;;;9.09;100.00
32109;BME280;18624;50.042;8.436;2023-02-22T14:02:03;100102.34;;;9.08;100.00
32109;BME280;18624;50.042;8.436;2023-02-22T14:04:33;100107.03;;;9.08;100.00
32109;BME280;18624;50.042;8.436;2023-02-22T14:09:49;100112.78;;;9.13;100.00
32109;BME280;18624;50.042;8.436;2023-02-22T14:18:03;100052.13;;;8.66;100.00
32109;BME280;18624;50.042;8.436;2023-02-22T14:20:35;100099.69;;;9.05;100.00
32109;BME280;18624;50.042;8.436;2023-02-22T14:23:37;100105.75;;;9.12;100.00
32109;BME280;18624;50.042;8.436;2023-02-22T14:26:32;99998.78;;;8.42;100.00
32109;BME280;18624;50.042;8.436;2023-02-22T14:37:21;100110.41;;;9.16;100.00
32109;BME280;18624;50.042;8.436;2023-02-22T14:39:53;100106.47;;;9.17;100.00
32109;BME280;18624;50.042;8.436;2023-02-22T14:44:58;100090.56;;;9.11;100.00
32109;BME280;18624;50.042;8.436;2023-02-22T14:47:40;100046.69;;;8.82;100.00
32109;BME280;18624;50.042;8.436;2023-02-22T14:50:20;100090.06;;;9.17;100.00
32109;BME280;18624;50.042;8.436;2023-02-22T14:55:45;100100.06;;;9.23;100.00
32109;BME280;18624;50.042;8.436;2023-02-22T14:58:20;100094.88;;;9.29;100.00
32109;BME280;18624;50.042;8.436;2023-02-22T15:00:49;100024.03;;;8.82;100.00
32109;BME280;18624;50.042;8.436;2023-02-22T15:05:48;100092.81;;;9.33;100.00
32109;BME280;18624;50.042;8.436;2023-02-22T15:08:18;100090.59;;;9.28;100.00
32109;BME280;18624;50.042;8.436;2023-02-22T15:10:53;100085.00;;;9.31;100.00
32109;BME280;18624;50.042;8.436;2023-02-22T15:13:22;100088.53;;;9.32;100.00
32109;BME280;18624;50.042;8.436;2023-02-22T15:15:56;100086.97;;;9.31;100.00
32109;BME280;18624;50.042;8.436;2023-02-22T15:18:32;100089.03;;;9.27;100.00
32109;BME280;18624;50.042;8.436;2023-02-22T15:21:08;100088.69;;;9.25;100.00
32109;BME280;18624;50.042;8.436;2023-02-22T15:23:47;100088.69;;;9.25;100.00
32109;BME280;18624;50.042;8.436;2023-02-22T15:26:24;100089.91;;;9.24;100.00
32109;BME280;18624;50.042;8.436;2023-02-22T15:28:57;100060.56;;;9.08;100.00